Time;durP1;ratioP1;P1;durP2;ratioP2;P2;SDS_P1;SDS_P2;PMS_P1;PMS_P2;Temp;Humidity;BMP_temperature;BMP_pressure;BME280_temperature;BME280_humidity;BME280_pressure;Samples;Min_cycle;Max_cycle;Signal;HPM_P1;HPM_P2
2022/05/31 00:00:16;;;;;;;12.63;6.30;;;17.20;99.90;;;;;;5071021;28;20202;-50
2022/05/31 00:02:44;;;;;;;11.40;6.17;;;17.10;99.90;;;;;;5071054;28;20215;-48
2022/05/31 00:05:12;;;;;;;11.70;6.00;;;17.10;99.90;;;;;;5071106;28;20202;-52
2022/05/31 00:07:41;;;;;;;8.63;5.80;;;17.10;99.90;;;;;;5084069;28;20200;-49
2022/05/31 00:10:10;;;;;;;11.10;6.57;;;17.10;99.90;;;;;;5091099;28;20217;-49
2022/05/31 00:12:37;;;;;;;8.83;5.90;;;17.10;99.90;;;;;;5091121;28;20254;-50
2022/05/31 00:15:06;;;;;;;10.10;6.47;;;17.20;99.90;;;;;;5091310;28;20202;-52
2022/05/31 00:17:33;;;;;;;8.50;5.40;;;17.10;99.90;;;;;;5076728;28;20209;-47
2022/05/31 00:19:59;;;;;;;9.53;5.80;;;17.20;99.90;;;;;;5071259;28;20677;-48
2022/05/31 00:22:28;;;;;;;9.07;5.57;;;17.10;99.90;;;;;;5070982;28;20608;-50
2022/05/31 00:24:56;;;;;;;9.07;5.30;;;17.20;99.90;;;;;;5071142;28;20637;-48
2022/05/31 00:27:24;;;;;;;9.57;5.63;;;17.20;99.90;;;;;;5083432;28;20267;-50
2022/05/31 00:29:51;;;;;;;10.10;5.73;;;17.20;99.90;;;;;;5092070;28;20238;-49
2022/05/31 00:32:23;;;;;;;6.43;4.90;;;17.20;99.90;;;;;;5095076;28;20216;-51
2022/05/31 00:34:52;;;;;;;8.03;5.67;;;17.20;99.90;;;;;;5095252;28;20627;-48
2022/05/31 00:37:20;;;;;;;8.00;5.53;;;17.20;99.90;;;;;;5082795;28;20194;-54
2022/05/31 00:39:47;;;;;;;13.27;6.17;;;17.10;99.90;;;;;;5077969;28;20202;-49
2022/05/31 00:42:17;;;;;;;9.27;5.40;;;17.20;99.90;;;;;;5074514;28;20224;-47
2022/05/31 00:44:44;;;;;;;7.57;5.87;;;17.10;99.90;;;;;;5074804;28;20270;-51
2022/05/31 00:47:18;;;;;;;8.40;5.67;;;17.10;99.90;;;;;;5085917;28;20195;-53
2022/05/31 00:49:48;;;;;;;13.40;6.07;;;17.10;99.90;;;;;;5094873;28;20315;-48
2022/05/31 00:52:19;;;;;;;8.33;5.60;;;17.10;99.90;;;;;;5094899;28;20217;-49
2022/05/31 00:54:54;;;;;;;8.23;5.90;;;17.10;99.90;;;;;;5094609;28;20191;-49
2022/05/31 00:57:23;;;;;;;11.43;6.40;;;17.10;99.90;;;;;;5082401;28;20197;-51
2022/05/31 00:59:56;;;;;;;11.10;6.00;;;17.10;99.90;;;;;;5074570;28;20221;-49
2022/05/31 01:02:24;;;;;;;7.70;5.97;;;17.10;99.90;;;;;;5074228;28;20191;-50
2022/05/31 01:04:58;;;;;;;9.50;5.90;;;17.00;99.90;;;;;;5074487;28;20692;-49
2022/05/31 01:07:25;;;;;;;10.43;6.80;;;17.00;99.90;;;;;;5086906;28;20202;-49
2022/05/31 01:09:52;;;;;;;9.23;6.07;;;17.00;99.90;;;;;;5094452;28;20231;-50
2022/05/31 01:12:22;;;;;;;10.20;6.57;;;17.00;99.90;;;;;;5094112;28;20213;-51
2022/05/31 01:14:49;;;;;;;7.43;6.03;;;17.00;99.90;;;;;;5094495;28;20209;-49
2022/05/31 01:17:19;;;;;;;9.07;6.03;;;17.00;99.90;;;;;;5082304;28;20205;-49
2022/05/31 01:20:00;;;;;;;11.93;6.77;;;17.00;99.90;;;;;;5074230;28;20192;-51
2022/05/31 01:22:37;;;;;;;12.27;7.40;;;17.00;99.90;;;;;;5073999;28;20193;-50
2022/05/31 01:25:12;;;;;;;10.00;7.30;;;17.00;99.90;;;;;;5074059;28;20194;-49
2022/05/31 01:27:59;;;;;;;13.60;8.57;;;16.90;99.90;;;;;;5075165;28;20272;-49
2022/05/31 01:30:28;;;;;;;11.60;7.03;;;16.90;99.90;;;;;;5073455;28;20243;-47
2022/05/31 01:32:59;;;;;;;13.03;7.53;;;16.90;99.90;;;;;;5073998;28;20211;-48
2022/05/31 01:35:30;;;;;;;12.37;8.30;;;16.90;99.90;;;;;;5073662;28;20191;-50
2022/05/31 01:38:05;;;;;;;13.83;8.20;;;16.90;99.90;;;;;;5074065;28;20307;-47
2022/05/31 01:40:40;;;;;;;16.33;8.80;;;16.90;99.90;;;;;;5073658;28;20232;-52
2022/05/31 01:43:07;;;;;;;14.63;8.73;;;16.80;99.90;;;;;;5073143;28;20217;-51
2022/05/31 01:45:38;;;;;;;12.57;8.70;;;16.80;99.90;;;;;;5073614;28;20201;-49
2022/05/31 01:48:07;;;;;;;15.53;8.97;;;16.80;99.90;;;;;;5073992;28;20199;-51
2022/05/31 01:50:34;;;;;;;14.07;9.03;;;16.70;99.90;;;;;;5073157;28;20237;-52
2022/05/31 01:53:03;;;;;;;15.30;9.27;;;16.70;99.90;;;;;;5073067;28;20208;-48
2022/05/31 01:55:32;;;;;;;14.40;8.33;;;16.70;99.90;;;;;;5081642;28;20644;-47
2022/05/31 01:58:02;;;;;;;14.77;7.80;;;16.70;99.90;;;;;;5093470;28;20667;-49
2022/05/31 02:00:28;;;;;;;13.20;8.03;;;16.80;99.90;;;;;;5093606;28;20671;-49
2022/05/31 02:02:59;;;;;;;12.87;8.97;;;16.80;99.90;;;;;;5093342;28;20557;-47
2022/05/31 02:05:26;;;;;;;10.70;7.67;;;16.80;99.90;;;;;;5082799;28;20196;-49
2022/05/31 02:07:54;;;;;;;13.93;8.60;;;16.80;99.90;;;;;;5072921;28;20221;-49
2022/05/31 02:10:23;;;;;;;12.90;8.57;;;16.80;99.90;;;;;;5072803;28;20228;-49
2022/05/31 02:12:51;;;;;;;12.70;7.63;;;16.80;99.90;;;;;;5073134;28;20210;-49
2022/05/31 02:15:18;;;;;;;13.87;7.30;;;16.80;99.90;;;;;;5081395;28;20231;-51
2022/05/31 02:17:45;;;;;;;12.27;7.50;;;16.80;99.90;;;;;;5093151;28;20210;-50
2022/05/31 02:20:12;;;;;;;16.67;8.53;;;16.80;99.90;;;;;;5092733;28;20205;-47
2022/05/31 02:22:40;;;;;;;15.37;8.40;;;16.80;99.90;;;;;;5093138;28;20684;-49
2022/05/31 02:25:08;;;;;;;15.73;8.90;;;16.80;99.90;;;;;;5091749;28;20206;-48
2022/05/31 02:27:37;;;;;;;13.40;7.87;;;16.80;99.90;;;;;;5092692;28;20212;-54
2022/05/31 02:30:04;;;;;;;10.73;7.43;;;16.80;99.90;;;;;;5092249;28;20242;-47
2022/05/31 02:32:31;;;;;;;13.27;7.77;;;16.80;99.90;;;;;;5092854;28;20200;-50
2022/05/31 02:34:58;;;;;;;11.63;7.30;;;16.80;99.90;;;;;;5083116;28;20674;-48
2022/05/31 02:37:25;;;;;;;14.10;7.53;;;16.80;99.90;;;;;;5072617;28;20209;-49
2022/05/31 02:39:52;;;;;;;13.23;7.60;;;16.80;99.90;;;;;;5072316;28;20203;-52
2022/05/31 02:42:19;;;;;;;11.67;7.20;;;16.80;99.90;;;;;;5072186;28;20229;-50
2022/05/31 02:44:47;;;;;;;11.03;6.93;;;16.80;99.90;;;;;;5079582;28;20317;-51
2022/05/31 02:47:15;;;;;;;15.90;7.07;;;16.80;99.90;;;;;;5092431;28;20208;-48
2022/05/31 02:49:44;;;;;;;10.37;7.10;;;16.80;99.90;;;;;;5092508;28;20233;-48
2022/05/31 02:52:11;;;;;;;10.17;6.83;;;16.80;99.90;;;;;;5092443;28;20302;-47
2022/05/31 02:54:37;;;;;;;11.60;6.80;;;16.90;99.90;;;;;;5086342;28;20197;-47
2022/05/31 02:57:05;;;;;;;15.30;7.37;;;16.90;99.90;;;;;;5072070;28;20512;-49
2022/05/31 02:59:32;;;;;;;9.70;7.30;;;16.90;99.90;;;;;;5072744;28;20198;-48
2022/05/31 03:02:00;;;;;;;9.10;6.60;;;16.90;99.90;;;;;;5073933;28;20209;-53
2022/05/31 03:04:27;;;;;;;15.77;7.70;;;16.90;99.90;;;;;;5071790;28;20210;-50
2022/05/31 03:06:54;;;;;;;10.53;7.43;;;16.90;99.90;;;;;;5071626;28;20227;-47
2022/05/31 03:09:20;;;;;;;10.00;7.07;;;16.90;99.90;;;;;;5071982;28;20209;-52
2022/05/31 03:11:51;;;;;;;10.77;7.57;;;16.90;99.90;;;;;;5071887;28;20209;-49
2022/05/31 03:14:24;;;;;;;9.60;6.60;;;17.00;99.90;;;;;;5071934;28;20637;-51
2022/05/31 03:16:57;;;;;;;11.30;7.00;;;17.00;99.90;;;;;;5071705;28;20192;-50
2022/05/31 03:19:30;;;;;;;11.27;7.60;;;17.00;99.90;;;;;;5071622;28;20200;-51
2022/05/31 03:22:02;;;;;;;19.13;8.63;;;17.00;99.90;;;;;;5091290;28;20206;-47
2022/05/31 03:24:34;;;;;;;9.77;6.87;;;17.10;99.90;;;;;;5081387;28;20198;-49
2022/05/31 03:27:04;;;;;;;9.63;6.80;;;17.10;99.90;;;;;;5071447;28;20193;-48
2022/05/31 03:29:31;;;;;;;10.30;6.77;;;17.10;99.90;;;;;;5076575;28;20238;-52
2022/05/31 03:31:58;;;;;;;12.10;6.80;;;17.10;99.90;;;;;;5071161;28;20216;-47
2022/05/31 03:34:28;;;;;;;8.87;7.33;;;17.10;99.90;;;;;;5080124;28;20677;-49
2022/05/31 03:36:54;;;;;;;10.47;6.93;;;17.10;99.90;;;;;;5091686;28;20200;-48
2022/05/31 03:39:21;;;;;;;8.20;6.00;;;17.10;99.90;;;;;;5091689;28;20217;-48
2022/05/31 03:41:48;;;;;;;8.63;6.70;;;17.10;99.90;;;;;;5090770;28;20225;-49
2022/05/31 03:44:15;;;;;;;9.63;6.67;;;17.10;99.90;;;;;;5091706;28;20217;-51
2022/05/31 03:46:41;;;;;;;11.93;6.97;;;17.10;99.90;;;;;;5091524;28;20202;-52
2022/05/31 03:49:09;;;;;;;10.50;7.57;;;17.20;99.90;;;;;;5091783;28;20205;-48
2022/05/31 03:51:37;;;;;;;9.47;7.07;;;17.20;99.90;;;;;;5089785;28;20241;-46
2022/05/31 03:54:04;;;;;;;9.43;6.57;;;17.20;99.90;;;;;;5071486;28;20209;-48
2022/05/31 03:56:30;;;;;;;9.33;6.90;;;17.20;99.90;;;;;;5071424;28;20230;-47
2022/05/31 03:58:57;;;;;;;9.83;7.23;;;17.20;99.90;;;;;;5071417;28;20610;-53
2022/05/31 04:01:24;;;;;;;11.60;8.43;;;17.20;99.90;;;;;;5071426;28;20197;-48
2022/05/31 04:03:51;;;;;;;9.77;7.20;;;17.20;99.90;;;;;;5091420;28;20729;-52
2022/05/31 04:06:18;;;;;;;8.67;6.90;;;17.20;99.90;;;;;;5095186;28;20206;-52
2022/05/31 04:08:46;;;;;;;10.93;7.37;;;17.20;99.90;;;;;;5095056;28;20215;-50
2022/05/31 04:11:13;;;;;;;7.83;6.53;;;17.20;99.90;;;;;;5095490;28;20557;-51
2022/05/31 04:13:40;;;;;;;9.37;7.43;;;17.20;99.90;;;;;;5094592;28;20209;-50
2022/05/31 04:16:10;;;;;;;11.33;7.30;;;17.20;99.90;;;;;;5095239;28;20243;-49
2022/05/31 04:18:37;;;;;;;8.07;6.53;;;17.20;99.90;;;;;;5095268;28;20206;-51
2022/05/31 04:21:07;;;;;;;9.37;7.90;;;17.20;99.90;;;;;;5095163;28;20459;-48
2022/05/31 04:26:20;;;;;;;11.30;8.10;;;17.10;99.90;;;;;;5074886;28;20560;-51
2022/05/31 04:28:47;;;;;;;9.37;7.33;;;17.10;99.90;;;;;;5076410;28;20238;-52
2022/05/31 04:31:14;;;;;;;14.60;7.80;;;17.20;99.90;;;;;;5074845;28;20223;-50
2022/05/31 04:33:41;;;;;;;9.60;7.60;;;17.10;99.90;;;;;;5078078;28;20212;-47
2022/05/31 04:36:14;;;;;;;9.90;7.57;;;17.20;99.90;;;;;;5094155;28;20672;-49
2022/05/31 04:38:42;;;;;;;9.30;7.40;;;17.10;99.90;;;;;;5094948;28;20188;-49
2022/05/31 04:41:17;;;;;;;9.27;7.30;;;17.10;99.90;;;;;;5095061;28;20294;-52
2022/05/31 04:43:45;;;;;;;10.17;7.50;;;17.10;99.90;;;;;;5089746;28;20253;-54
2022/05/31 04:46:13;;;;;;;10.57;7.33;;;17.10;99.90;;;;;;5094915;28;20228;-50
2022/05/31 04:48:40;;;;;;;10.33;7.53;;;17.10;99.90;;;;;;5094748;28;20682;-51
2022/05/31 04:51:07;;;;;;;10.50;7.30;;;17.10;99.90;;;;;;5081125;28;20237;-48
2022/05/31 04:53:34;;;;;;;12.17;8.57;;;17.00;99.90;;;;;;5094649;28;20200;-47
2022/05/31 04:56:02;;;;;;;12.53;8.63;;;17.00;99.90;;;;;;5094746;28;20666;-49
2022/05/31 04:58:29;;;;;;;11.20;8.13;;;16.90;99.90;;;;;;5094287;28;20295;-54
2022/05/31 05:00:57;;;;;;;11.53;8.07;;;16.80;99.90;;;;;;5090790;28;20197;-53
2022/05/31 05:03:24;;;;;;;12.77;9.20;;;16.70;99.90;;;;;;5093946;28;20205;-49
2022/05/31 05:05:50;;;;;;;16.17;9.00;;;16.60;99.90;;;;;;5094087;28;20657;-52
2022/05/31 05:08:17;;;;;;;13.93;9.90;;;16.60;99.90;;;;;;5084632;28;20208;-52
2022/05/31 05:10:47;;;;;;;13.30;10.17;;;16.60;99.90;;;;;;5088238;28;20220;-52
2022/05/31 05:13:14;;;;;;;15.43;10.20;;;16.60;99.90;;;;;;5094413;28;20204;-50
2022/05/31 05:15:42;;;;;;;15.83;10.87;;;16.60;99.90;;;;;;5085086;28;20216;-53
2022/05/31 05:18:10;;;;;;;15.77;10.80;;;16.60;99.90;;;;;;5081585;28;20201;-49
2022/05/31 05:20:40;;;;;;;11.80;9.27;;;16.60;99.90;;;;;;5082383;28;20608;-50
2022/05/31 05:23:07;;;;;;;14.77;9.93;;;16.50;99.90;;;;;;5083841;28;20192;-50
2022/05/31 05:25:34;;;;;;;14.20;9.73;;;16.60;99.90;;;;;;5083897;28;20206;-55
2022/05/31 05:30:38;;;;;;;16.50;9.83;;;16.60;99.90;;;;;;5083542;28;20247;-49
2022/05/31 05:30:47;;;;;;;11.53;8.50;;;16.70;99.90;;;;;;5083088;28;20347;-48
2022/05/31 05:33:15;;;;;;;11.63;8.73;;;16.80;99.90;;;;;;5080471;28;20563;-48
2022/05/31 05:35:41;;;;;;;12.40;9.50;;;16.80;99.90;;;;;;5079738;28;20518;-47
2022/05/31 05:38:08;;;;;;;12.33;8.70;;;16.90;99.90;;;;;;5082177;28;20198;-49
2022/05/31 05:40:35;;;;;;;12.23;8.77;;;17.00;99.90;;;;;;5082671;28;20306;-47
2022/05/31 05:43:02;;;;;;;15.97;9.27;;;17.00;99.90;;;;;;5081513;28;20294;-51
2022/05/31 05:45:29;;;;;;;10.47;7.73;;;17.00;99.90;;;;;;5072287;28;20210;-48
2022/05/31 05:47:56;;;;;;;13.37;7.93;;;17.10;99.90;;;;;;5072310;28;20192;-48
2022/05/31 05:50:24;;;;;;;8.73;7.03;;;17.10;99.90;;;;;;5071655;28;20223;-47
2022/05/31 05:52:55;;;;;;;8.73;6.70;;;17.20;99.90;;;;;;5081314;28;20210;-56
2022/05/31 05:55:22;;;;;;;10.40;7.47;;;17.20;99.90;;;;;;5089320;28;20204;-50
2022/05/31 05:57:49;;;;;;;9.30;7.30;;;17.30;99.90;;;;;;5093271;28;20752;-50
2022/05/31 06:00:16;;;;;;;7.77;6.63;;;17.30;99.90;;;;;;5092978;28;20226;-53
2022/05/31 06:02:48;;;;;;;7.60;6.57;;;17.30;99.90;;;;;;5080667;28;20206;-48
2022/05/31 06:05:17;;;;;;;10.20;7.23;;;17.40;99.90;;;;;;5072817;28;20190;-54
2022/05/31 06:07:49;;;;;;;10.23;7.03;;;17.40;99.90;;;;;;5072255;28;20194;-51
2022/05/31 06:10:21;;;;;;;9.73;7.00;;;17.30;99.90;;;;;;5072884;28;20194;-54
2022/05/31 06:12:52;;;;;;;8.60;7.27;;;17.40;99.90;;;;;;5073074;28;20229;-47
2022/05/31 06:15:22;;;;;;;9.20;7.07;;;17.40;99.90;;;;;;5072445;28;20215;-49
2022/05/31 06:17:53;;;;;;;11.60;7.20;;;17.30;99.90;;;;;;5071861;28;20204;-51
2022/05/31 06:20:21;;;;;;;14.27;7.80;;;17.30;99.90;;;;;;5072576;28;20685;-52
2022/05/31 06:22:50;;;;;;;15.07;8.60;;;17.30;99.90;;;;;;5072591;28;20211;-49
2022/05/31 06:25:20;;;;;;;14.40;8.97;;;17.40;99.90;;;;;;5072552;28;20204;-50
2022/05/31 06:27:47;;;;;;;12.97;8.53;;;17.30;99.90;;;;;;5079251;28;20186;-52
2022/05/31 06:30:14;;;;;;;9.97;8.17;;;17.20;99.90;;;;;;5092439;28;20610;-52
2022/05/31 06:32:41;;;;;;;11.37;8.77;;;17.10;99.90;;;;;;5092712;28;20674;-50
2022/05/31 06:35:08;;;;;;;13.90;9.13;;;17.20;99.90;;;;;;5092664;28;20288;-49
2022/05/31 06:37:35;;;;;;;12.60;9.13;;;17.20;99.90;;;;;;5092413;28;20355;-50
2022/05/31 06:40:04;;;;;;;12.57;8.83;;;17.20;99.90;;;;;;5092733;28;20571;-52
2022/05/31 06:42:32;;;;;;;12.90;8.80;;;17.10;99.90;;;;;;5092391;28;20201;-48
2022/05/31 06:44:59;;;;;;;12.10;8.53;;;17.10;99.90;;;;;;5092611;28;20291;-50
2022/05/31 06:47:26;;;;;;;10.43;8.43;;;17.10;99.90;;;;;;5092044;28;20263;-49
2022/05/31 06:49:53;;;;;;;10.97;8.80;;;17.00;99.90;;;;;;5092363;28;20208;-50
2022/05/31 06:57:51;;;;;;;12.47;7.90;;;17.00;99.90;;;;;;5092227;28;20220;-47
2022/05/31 07:00:20;;;;;;;10.03;8.17;;;16.90;99.90;;;;;;5092196;28;20210;-54
2022/05/31 07:02:48;;;;;;;10.83;8.47;;;16.90;99.90;;;;;;5092264;28;20200;-51
2022/05/31 07:05:15;;;;;;;12.37;7.90;;;16.90;99.90;;;;;;5091727;28;20201;-52
2022/05/31 07:07:42;;;;;;;10.10;7.73;;;16.80;99.90;;;;;;5092238;28;20204;-51
2022/05/31 07:10:11;;;;;;;11.43;7.73;;;16.80;99.90;;;;;;5092192;28;20650;-48
2022/05/31 07:12:40;;;;;;;8.50;7.10;;;16.90;99.90;;;;;;5091896;28;20230;-53
2022/05/31 07:15:07;;;;;;;8.50;6.70;;;16.90;99.90;;;;;;5089285;28;20250;-50
2022/05/31 07:17:35;;;;;;;7.97;6.80;;;16.90;99.90;;;;;;5092248;28;20527;-51
2022/05/31 07:20:02;;;;;;;9.00;7.10;;;17.00;99.90;;;;;;5092049;28;20701;-51
2022/05/31 07:22:29;;;;;;;11.10;6.80;;;17.00;99.90;;;;;;5091771;28;20230;-51
2022/05/31 07:24:56;;;;;;;8.60;7.70;;;17.00;99.90;;;;;;5091927;28;20284;-52
2022/05/31 07:27:25;;;;;;;11.90;7.33;;;17.10;99.90;;;;;;5091493;28;20207;-49
2022/05/31 07:29:52;;;;;;;10.03;7.60;;;17.20;99.90;;;;;;5091386;28;20719;-51
2022/05/31 07:32:18;;;;;;;12.03;7.77;;;17.20;99.90;;;;;;5091087;28;20234;-55
2022/05/31 07:34:45;;;;;;;8.07;6.63;;;17.20;99.90;;;;;;5091876;28;20200;-50
2022/05/31 07:37:14;;;;;;;7.83;6.93;;;17.10;99.90;;;;;;5091614;28;20231;-49
2022/05/31 07:39:41;;;;;;;9.97;7.10;;;17.10;99.90;;;;;;5090960;28;20259;-48
2022/05/31 07:42:09;;;;;;;8.60;6.90;;;17.10;99.90;;;;;;5078190;28;20561;-49
2022/05/31 07:44:37;;;;;;;11.97;7.30;;;17.10;99.90;;;;;;5091571;28;20298;-48
2022/05/31 07:47:04;;;;;;;9.83;7.37;;;17.10;99.90;;;;;;5082863;28;20201;-47
2022/05/31 07:49:31;;;;;;;17.47;7.23;;;17.10;99.90;;;;;;5080695;28;20202;-52
2022/05/31 07:51:58;;;;;;;10.50;6.90;;;17.10;99.90;;;;;;5090328;28;20220;-52
2022/05/31 07:54:25;;;;;;;9.37;6.47;;;17.10;99.90;;;;;;5080316;28;20202;-48
2022/05/31 07:56:52;;;;;;;8.33;6.90;;;17.20;99.90;;;;;;5082245;28;20197;-47
2022/05/31 07:59:18;;;;;;;11.40;7.00;;;17.10;99.90;;;;;;5087652;28;20571;-52
2022/05/31 08:01:46;;;;;;;12.73;7.10;;;17.10;99.90;;;;;;5079443;28;20210;-52
2022/05/31 08:04:14;;;;;;;12.57;7.50;;;17.10;99.90;;;;;;5070804;28;20669;-52
2022/05/31 08:06:41;;;;;;;11.83;6.57;;;17.10;99.90;;;;;;5075273;28;20213;-48
2022/05/31 08:09:08;;;;;;;10.00;7.30;;;17.10;99.90;;;;;;5091146;28;20201;-49
2022/05/31 08:11:35;;;;;;;12.57;7.47;;;17.10;99.90;;;;;;5091003;28;20228;-49
2022/05/31 08:14:03;;;;;;;12.17;7.50;;;17.00;99.90;;;;;;5080298;28;20209;-47
2022/05/31 08:16:32;;;;;;;12.27;7.87;;;17.00;99.90;;;;;;5084867;28;20224;-49
2022/05/31 08:19:00;;;;;;;11.83;8.40;;;16.90;99.90;;;;;;5071300;28;20615;-49
2022/05/31 08:21:30;;;;;;;11.60;8.67;;;16.80;99.90;;;;;;5070922;28;20217;-49
2022/05/31 08:23:58;;;;;;;13.30;8.60;;;16.70;99.90;;;;;;5071328;28;20205;-50
2022/05/31 08:26:25;;;;;;;14.77;7.73;;;16.60;99.90;;;;;;5071013;28;20215;-50
2022/05/31 08:28:52;;;;;;;12.60;8.67;;;16.40;99.90;;;;;;5070634;28;20237;-50
2022/05/31 08:31:23;;;;;;;12.73;7.63;;;16.40;99.90;;;;;;5071062;28;20846;-51
2022/05/31 08:33:50;;;;;;;11.87;6.67;;;16.30;99.90;;;;;;5079195;28;20196;-47
2022/05/31 08:36:18;;;;;;;9.17;6.27;;;16.20;99.90;;;;;;5091213;28;20199;-48
2022/05/31 08:38:45;;;;;;;9.17;6.40;;;16.20;99.90;;;;;;5090941;28;20295;-51
2022/05/31 08:41:27;;;;;;;8.50;6.40;;;16.20;99.90;;;;;;5091004;28;20662;-50
2022/05/31 08:44:08;;;;;;;12.23;6.70;;;16.10;99.90;;;;;;5087205;28;20253;-51
2022/05/31 08:46:56;;;;;;;8.47;5.83;;;16.00;99.90;;;;;;5080747;28;20196;-51
2022/05/31 08:52:43;;;;;;;9.20;6.40;;;15.70;99.90;;;;;;5073425;28;20508;-53
2022/05/31 08:58:05;;;;;;;6.97;5.40;;;15.50;99.90;;;;;;5074237;28;20177;-49
2022/05/31 09:00:35;;;;;;;6.30;5.47;;;15.30;99.90;;;;;;5074401;28;20197;-50
2022/05/31 09:03:09;;;;;;;9.67;5.87;;;15.30;99.90;;;;;;5089471;28;20241;-52
2022/05/31 09:05:40;;;;;;;8.00;5.70;;;15.20;99.90;;;;;;5094487;28;20188;-49
2022/05/31 09:08:15;;;;;;;7.30;5.60;;;15.20;99.90;;;;;;5091650;28;20196;-51
2022/05/31 09:10:46;;;;;;;10.23;6.50;;;15.20;99.90;;;;;;5094404;28;20188;-49
2022/05/31 09:13:20;;;;;;;10.67;5.97;;;15.20;99.90;;;;;;5092306;28;20227;-48
2022/05/31 09:15:53;;;;;;;10.00;6.43;;;15.20;99.90;;;;;;5081910;28;20201;-50
2022/05/31 09:18:27;;;;;;;10.07;6.20;;;15.10;99.90;;;;;;5082196;28;20188;-52
2022/05/31 09:20:56;;;;;;;11.13;6.70;;;15.10;99.90;;;;;;5083546;28;20232;-56
2022/05/31 09:23:28;;;;;;;9.50;6.13;;;15.10;99.90;;;;;;5090998;28;20260;-62
2022/05/31 09:26:06;;;;;;;11.27;6.63;;;15.10;99.90;;;;;;5093628;28;20755;-49
2022/05/31 09:28:38;;;;;;;10.17;6.20;;;15.10;99.90;;;;;;5084121;28;20197;-50
2022/05/31 09:31:18;;;;;;;11.17;6.27;;;15.10;99.90;;;;;;5073600;28;20296;-54
2022/05/31 09:33:57;;;;;;;8.53;6.17;;;15.10;99.90;;;;;;5075653;28;20208;-53
2022/05/31 09:36:32;;;;;;;10.10;6.07;;;15.10;99.90;;;;;;5073888;28;20196;-50
2022/05/31 09:39:15;;;;;;;8.73;5.63;;;15.10;99.90;;;;;;5073664;28;20189;-52
2022/05/31 09:41:48;;;;;;;6.10;4.87;;;15.10;99.90;;;;;;5074809;28;20556;-53
2022/05/31 09:44:22;;;;;;;6.90;5.00;;;15.10;99.90;;;;;;5080788;28;20531;-51
2022/05/31 09:46:52;;;;;;;6.90;4.13;;;15.10;99.90;;;;;;5084602;28;20665;-50
2022/05/31 09:49:27;;;;;;;5.57;4.30;;;15.00;99.90;;;;;;5084759;28;20697;-51
2022/05/31 09:51:54;;;;;;;6.77;4.30;;;14.90;99.90;;;;;;5073199;28;20223;-48
2022/05/31 09:57:15;;;;;;;7.57;4.00;;;14.90;99.90;;;;;;5093266;28;20191;-52
2022/05/31 09:59:47;;;;;;;6.17;4.63;;;14.90;99.90;;;;;;5093475;28;20665;-52
2022/05/31 10:02:21;;;;;;;6.87;4.60;;;14.80;99.90;;;;;;5086443;28;20188;-50
2022/05/31 10:04:49;;;;;;;8.53;4.70;;;14.80;99.90;;;;;;5083898;28;20188;-55
2022/05/31 10:07:33;;;;;;;5.87;4.10;;;14.90;99.90;;;;;;5076987;28;20201;-49
2022/05/31 10:10:08;;;;;;;7.07;4.20;;;14.90;99.90;;;;;;5085867;28;20204;-51
2022/05/31 10:12:35;;;;;;;6.87;4.67;;;14.90;99.90;;;;;;5092750;28;20212;-50
2022/05/31 10:15:04;;;;;;;7.27;4.60;;;14.90;99.90;;;;;;5093125;28;20712;-49
2022/05/31 10:17:42;;;;;;;7.77;4.53;;;15.00;99.90;;;;;;5093222;28;20200;-49
2022/05/31 10:20:21;;;;;;;7.73;5.50;;;15.20;99.90;;;;;;5092620;28;20219;-51
2022/05/31 10:23:01;;;;;;;8.17;4.53;;;15.30;99.90;;;;;;5093122;28;20286;-53
2022/05/31 10:25:35;;;;;;;6.47;5.10;;;15.40;99.90;;;;;;5092832;28;20224;-51
2022/05/31 10:28:04;;;;;;;6.77;5.20;;;15.60;99.90;;;;;;5092850;28;20615;-53
2022/05/31 10:30:33;;;;;;;7.93;5.30;;;15.70;99.90;;;;;;5092475;28;20236;-48
2022/05/31 10:33:06;;;;;;;9.13;5.97;;;15.90;99.90;;;;;;5092563;28;20269;-53
2022/05/31 10:35:35;;;;;;;8.13;6.23;;;16.00;99.90;;;;;;5092595;28;20191;-50
2022/05/31 10:38:09;;;;;;;7.33;4.93;;;16.20;99.90;;;;;;5092643;28;20735;-50
2022/05/31 10:40:46;;;;;;;6.33;4.63;;;16.30;99.90;;;;;;5092820;28;20192;-48
2022/05/31 10:43:28;;;;;;;5.50;4.23;;;16.30;99.90;;;;;;5093015;28;20192;-49
2022/05/31 10:45:56;;;;;;;4.60;4.07;;;16.40;99.90;;;;;;5092474;28;20200;-52
2022/05/31 10:48:24;;;;;;;7.03;4.60;;;16.40;99.90;;;;;;5092439;28;20568;-51
2022/05/31 10:50:58;;;;;;;6.60;4.57;;;16.60;99.90;;;;;;5092252;28;20201;-52
2022/05/31 10:53:36;;;;;;;6.63;4.53;;;16.70;99.90;;;;;;5092326;28;20693;-54
2022/05/31 10:56:11;;;;;;;6.17;4.20;;;16.70;99.90;;;;;;5092347;28;20195;-55
2022/05/31 10:58:47;;;;;;;5.37;3.90;;;16.80;99.90;;;;;;5092344;28;20657;-50
2022/05/31 11:01:38;;;;;;;10.47;4.20;;;16.80;99.90;;;;;;5092122;28;20597;-54
2022/05/31 11:04:19;;;;;;;5.97;4.20;;;16.80;99.90;;;;;;5088546;28;20594;-50
2022/05/31 11:06:59;;;;;;;4.73;3.77;;;16.80;99.90;;;;;;5071998;28;20638;-51
2022/05/31 11:12:38;;;;;;;4.40;3.87;;;16.90;99.90;;;;;;5071711;28;20338;-52
2022/05/31 11:15:20;;;;;;;5.03;4.03;;;17.00;99.90;;;;;;5071135;28;20632;-55
2022/05/31 11:18:09;;;;;;;5.40;3.97;;;17.10;99.90;;;;;;5071929;28;20200;-51
2022/05/31 11:20:46;;;;;;;5.40;4.00;;;17.20;99.90;;;;;;5080316;28;20282;-48
2022/05/31 11:23:34;;;;;;;5.23;3.50;;;17.30;99.90;;;;;;5091535;28;20275;-50
2022/05/31 11:26:13;;;;;;;6.10;4.97;;;17.40;99.90;;;;;;5092001;28;20633;-53
2022/05/31 11:28:54;;;;;;;5.30;3.47;;;17.40;99.90;;;;;;5087966;28;20191;-52
2022/05/31 11:31:35;;;;;;;4.87;3.23;;;17.50;99.90;;;;;;5071800;28;20197;-49
2022/05/31 11:34:10;;;;;;;5.00;3.27;;;17.60;99.90;;;;;;5071654;28;20530;-48
2022/05/31 11:36:49;;;;;;;6.60;3.23;;;17.60;99.90;;;;;;5071571;28;20201;-51
2022/05/31 11:39:29;;;;;;;3.87;2.93;;;17.50;99.90;;;;;;5083622;28;20208;-51
2022/05/31 11:42:07;;;;;;;6.77;3.33;;;17.50;99.90;;;;;;5091680;28;20581;-48
2022/05/31 11:45:02;;;;;;;4.63;3.37;;;17.50;99.90;;;;;;5091513;28;20249;-50
2022/05/31 11:47:52;;;;;;;3.23;2.87;;;17.50;99.90;;;;;;5071083;28;20197;-50
2022/05/31 11:50:27;;;;;;;3.40;2.90;;;17.50;99.90;;;;;;5071490;28;20201;-53
2022/05/31 11:53:13;;;;;;;4.47;2.60;;;17.50;99.90;;;;;;5071467;28;20494;-52
2022/05/31 11:55:49;;;;;;;5.90;2.70;;;17.60;99.90;;;;;;5091580;28;20280;-51
2022/05/31 11:58:26;;;;;;;5.43;2.47;;;17.60;99.90;;;;;;5089563;28;20195;-51
2022/05/31 12:01:11;;;;;;;3.80;2.60;;;17.60;99.90;;;;;;5091433;28;20194;-51
2022/05/31 12:03:48;;;;;;;4.17;2.60;;;17.50;99.90;;;;;;5085554;28;20257;-56
2022/05/31 12:06:21;;;;;;;4.07;2.80;;;17.50;99.90;;;;;;5083459;28;20289;-51
2022/05/31 12:08:54;;;;;;;3.70;2.83;;;17.50;99.90;;;;;;5091390;28;20197;-53
2022/05/31 12:11:25;;;;;;;3.13;2.77;;;17.70;99.90;;;;;;5091428;28;20188;-53
2022/05/31 12:13:53;;;;;;;2.90;2.50;;;17.80;99.90;;;;;;5091055;28;20690;-53
2022/05/31 12:16:22;;;;;;;5.20;2.70;;;17.90;99.90;;;;;;5090969;28;20207;-50
2022/05/31 12:18:57;;;;;;;3.37;3.07;;;18.10;99.90;;;;;;5090885;28;20203;-54
2022/05/31 12:21:33;;;;;;;4.20;2.83;;;18.20;99.90;;;;;;5091070;28;20198;-52
2022/05/31 12:24:06;;;;;;;4.73;2.90;;;18.30;99.90;;;;;;5091387;28;20538;-53
2022/05/31 12:26:39;;;;;;;3.23;2.90;;;18.30;99.90;;;;;;5093438;28;20203;-53
2022/05/31 12:29:16;;;;;;;4.77;2.90;;;18.30;99.90;;;;;;5091828;28;20252;-54
2022/05/31 12:31:44;;;;;;;3.80;2.83;;;18.30;99.90;;;;;;5085267;28;20667;-52
2022/05/31 12:34:31;;;;;;;3.10;2.80;;;18.40;99.90;;;;;;5076096;28;20326;-51
2022/05/31 12:37:01;;;;;;;3.87;2.33;;;18.40;99.90;;;;;;5080169;28;20199;-52
2022/05/31 12:39:30;;;;;;;4.07;3.30;;;18.30;99.90;;;;;;5080224;28;20199;-50
2022/05/31 12:41:58;;;;;;;3.20;2.70;;;18.20;99.90;;;;;;5075862;28;20573;-52
2022/05/31 12:44:30;;;;;;;5.30;2.63;;;18.20;99.90;;;;;;5094907;28;20540;-54
2022/05/31 12:47:13;;;;;;;3.00;2.60;;;18.30;99.90;;;;;;5094712;28;20206;-57
2022/05/31 12:49:52;;;;;;;3.93;2.50;;;18.30;99.90;;;;;;5085709;28;20192;-52
2022/05/31 12:55:55;;;;;;;3.40;2.10;;;18.30;99.90;;;;;;5094693;28;20721;-53
2022/05/31 12:58:50;;;;;;;5.70;2.30;;;18.30;99.90;;;;;;5094350;28;20238;-53
2022/05/31 13:01:35;;;;;;;3.13;2.23;;;18.40;99.90;;;;;;5070503;28;20258;-51
2022/05/31 13:04:10;;;;;;;2.33;1.93;;;18.40;99.90;;;;;;5094323;28;20192;-52
2022/05/31 13:06:57;;;;;;;2.80;2.50;;;18.30;99.90;;;;;;5082801;28;20199;-53
2022/05/31 13:09:37;;;;;;;4.30;2.17;;;18.30;99.90;;;;;;5073785;28;20252;-54
2022/05/31 13:20:36;;;;;;;2.20;2.00;;;18.60;99.90;;;;;;5093472;28;20219;-56
2022/05/31 13:23:09;;;;;;;2.80;2.17;;;18.50;99.90;;;;;;5093220;28;20188;-53
2022/05/31 13:25:44;;;;;;;4.17;2.33;;;18.50;99.90;;;;;;5085905;28;20199;-57
2022/05/31 13:28:25;;;;;;;2.53;2.13;;;18.50;99.90;;;;;;5083593;28;20272;-53
2022/05/31 13:30:56;;;;;;;3.37;2.57;;;18.50;99.90;;;;;;5094184;28;20234;-57